Strona główna
METAR-TAF:

METAR-TAF

Lotnisko :

Port lotniczy Szawle

Szawle, Litwa

Szerokość geograficzna: 55-53-38N, Długość geograficzna: 023-23-42E, wysokość: 135 m

Aktualna obserwacja pogody

Raport powstał 10 minut temu, godzina 09:50 UTC
Wiatr 9 kt od południe, zmienny między południowo-południowy wschód i południowy zachód
Temperatura 25°C
Wilgotność 47%
Ciśnienie 1018 hPa
Widzialność 10 km lub więcej
Mało chmury na wysokości 4600 ft

METAR: EYSA 180950Z 19009KT 160V230 9999 FEW046 25/13 Q1018 BLU NOSIG

czas: 13:00 (10:00 UTC)

Prognoza

Raport powstał 1 godzina i 59 minut temu, godzina 08:01 UTC
Prognoza ważna od 18 godzina 09 UTC do 18 godzina 18 UTC
Wiatr 7 kt od południowo-południowy zachód
Widzialność 10 km lub więcej
Rozproszone chmury na wysokości 4500 ft
Przejściowo
od 18 godzina 13 UTC do 18 godzina 17 UTC
Przerywane chmury na wysokości 3000 ft, Cumulonimbus.
burza, deszcz

TAF: EYSA 180801Z 1809/1818 20007KT 9999 SCT045 TEMPO 1813/1817 TSRA BKN030CB

Obserwacja i prognoza pogody dla ponad 4000 lotnisk (raport METAR i TAF).

Dostępne stacje oznaczono żółtymi i czerwonymi punktami na mapie.

Najedź kursorem aby zobaczyć nazwę stacji.

Kliknij aby zobaczyć obserwacje i prognozy pogody.

Aby zmienić mapę: kliknij na zielony przycisk z czarnym krzyżykiem, aby powiększyć; na zielony przycisk z myślnikiem, aby pomniejszyć; na zielone strzałki, aby przejść do map sąsiednich.


METAR-TAF: